createdAt,value
2022-11-26T00:01:45.725Z,4.97
2022-11-26T00:04:14.054Z,4.28
2022-11-26T00:06:44.815Z,4.25
2022-11-26T00:09:16.284Z,3.85
2022-11-26T00:11:44.814Z,3.85
2022-11-26T00:14:14.723Z,4.00
2022-11-26T00:16:44.615Z,4.30
2022-11-26T00:19:13.052Z,4.82
2022-11-26T00:21:42.593Z,4.40
2022-11-26T00:24:19.078Z,4.70
2022-11-26T00:26:47.462Z,4.65
2022-11-26T00:29:15.806Z,4.63
2022-11-26T00:31:45.443Z,5.22
2022-11-26T00:34:13.895Z,4.22
2022-11-26T00:36:43.552Z,4.18
2022-11-26T00:39:13.784Z,3.85
2022-11-26T00:41:42.107Z,3.70
2022-11-26T00:44:17.466Z,3.78
2022-11-26T00:46:47.179Z,3.97
2022-11-26T00:49:15.505Z,3.58
2022-11-26T00:51:44.645Z,3.30
2022-11-26T00:54:14.163Z,4.10
2022-11-26T00:56:42.559Z,3.80
2022-11-26T00:59:13.559Z,4.35
2022-11-26T01:01:41.918Z,4.00
2022-11-26T01:04:11.639Z,3.30
2022-11-26T01:06:41.475Z,3.75
2022-11-26T01:09:14.623Z,4.07
2022-11-26T01:11:42.975Z,3.63
2022-11-26T01:14:15.335Z,3.45
2022-11-26T01:16:44.973Z,3.70
2022-11-26T01:19:15.512Z,4.43
2022-11-26T01:21:44.204Z,3.28
2022-11-26T01:24:12.532Z,3.53
2022-11-26T01:26:41.709Z,3.50
2022-11-26T01:29:12.309Z,2.83
2022-11-26T01:31:40.690Z,3.83
2022-11-26T01:34:09.255Z,3.13
2022-11-26T01:36:40.276Z,3.63
2022-11-26T01:39:09.400Z,2.90
2022-11-26T01:41:44.408Z,3.70
2022-11-26T01:44:17.538Z,3.90
2022-11-26T01:46:45.954Z,3.47
2022-11-26T01:49:18.916Z,3.20
2022-11-26T01:51:49.926Z,3.35
2022-11-26T01:54:18.748Z,3.13
2022-11-26T01:56:47.804Z,3.30
2022-11-26T01:59:18.907Z,3.65
2022-11-26T02:01:47.458Z,3.40
2022-11-26T02:04:18.535Z,3.05
2022-11-26T02:06:48.462Z,3.30
2022-11-26T02:09:18.580Z,3.53
2022-11-26T02:11:46.936Z,3.47
2022-11-26T02:14:17.765Z,4.07
2022-11-26T02:16:58.382Z,3.60
2022-11-26T02:19:43.143Z,4.00
2022-11-26T02:22:14.470Z,3.95
2022-11-26T02:24:49.821Z,3.58
2022-11-26T02:27:42.178Z,3.08
2022-11-26T02:30:12.543Z,3.92
2022-11-26T02:32:44.068Z,4.13
2022-11-26T02:35:17.655Z,4.38
2022-11-26T02:37:49.000Z,3.75
2022-11-26T02:40:17.415Z,3.95
2022-11-26T02:46:56.098Z,3.78
2022-11-26T02:49:24.868Z,3.13
2022-11-26T02:51:55.232Z,3.42
2022-11-26T02:54:24.367Z,3.53
2022-11-26T02:56:53.041Z,3.63
2022-11-26T02:59:21.651Z,3.75
2022-11-26T03:01:53.308Z,3.80
2022-11-26T03:04:24.747Z,4.97
2022-11-26T03:06:53.869Z,4.10
2022-11-26T03:09:23.641Z,4.40
2022-11-26T03:11:52.019Z,4.20
2022-11-26T03:14:20.303Z,4.85
2022-11-26T03:16:48.692Z,4.80
2022-11-26T03:19:17.169Z,4.28
2022-11-26T03:21:46.809Z,3.83
2022-11-26T03:24:15.123Z,4.00
2022-11-26T03:26:43.454Z,4.70
2022-11-26T03:29:11.803Z,4.35
2022-11-26T03:31:40.155Z,3.95
2022-11-26T03:34:08.581Z,4.15
2022-11-26T03:36:36.985Z,3.83
2022-11-26T03:39:06.755Z,4.32
2022-11-26T03:41:35.324Z,4.00
2022-11-26T03:44:03.624Z,3.88
2022-11-26T03:46:31.919Z,4.18
2022-11-26T03:49:00.295Z,3.78
2022-11-26T03:51:28.683Z,4.72
2022-11-26T03:53:57.228Z,3.60
2022-11-26T03:56:27.147Z,4.15
2022-11-26T03:58:55.481Z,3.63
2022-11-26T04:01:23.985Z,4.38
2022-11-26T04:03:52.394Z,3.95
2022-11-26T04:06:20.728Z,3.97
2022-11-26T04:08:49.096Z,4.50
2022-11-26T04:11:18.547Z,4.10
2022-11-26T04:13:48.187Z,3.90
2022-11-26T04:16:16.557Z,3.97
2022-11-26T04:18:44.918Z,3.92
2022-11-26T04:21:13.274Z,3.65
2022-11-26T04:23:41.630Z,4.30
2022-11-26T04:26:09.972Z,4.13
2022-11-26T04:28:38.348Z,4.30
2022-11-26T04:31:08.338Z,4.90
2022-11-26T04:33:36.651Z,4.63
2022-11-26T04:36:05.160Z,4.38
2022-11-26T04:38:33.576Z,4.90
2022-11-26T04:41:01.869Z,5.05
2022-11-26T04:43:30.189Z,4.85
2022-11-26T04:45:58.815Z,5.63
2022-11-26T04:48:28.554Z,4.25
2022-11-26T04:50:57.058Z,4.13
2022-11-26T04:53:25.425Z,3.95
2022-11-26T04:55:53.860Z,5.20
2022-11-26T04:58:22.983Z,3.72
2022-11-26T05:00:51.668Z,4.60
2022-11-26T05:03:20.277Z,4.93
2022-11-26T05:05:50.643Z,4.60
2022-11-26T05:08:19.049Z,4.78
2022-11-26T05:10:47.436Z,4.85
2022-11-26T05:13:15.754Z,4.22
2022-11-26T05:15:44.020Z,4.82
2022-11-26T05:18:12.364Z,4.70
2022-11-26T05:20:40.688Z,4.97
2022-11-26T05:23:10.404Z,5.40
2022-11-26T05:25:38.739Z,4.90
2022-11-26T05:28:07.063Z,7.10
2022-11-26T05:30:35.567Z,8.73
2022-11-26T05:33:03.877Z,9.68
2022-11-26T05:35:32.190Z,9.93
2022-11-26T05:38:00.572Z,11.65
2022-11-26T05:40:30.202Z,12.93
2022-11-26T05:42:58.489Z,11.45
2022-11-26T05:45:26.794Z,11.13
2022-11-26T05:47:55.216Z,10.30
2022-11-26T05:50:23.556Z,8.57
2022-11-26T05:52:54.916Z,7.28
2022-11-26T05:55:23.282Z,7.40
2022-11-26T05:57:53.025Z,7.32
2022-11-26T06:00:21.626Z,6.95
2022-11-26T06:02:50.154Z,6.22
2022-11-26T06:05:18.920Z,5.85
2022-11-26T06:07:47.332Z,6.43
2022-11-26T06:10:36.001Z,5.90
2022-11-26T06:13:05.653Z,6.30
2022-11-26T06:15:33.971Z,6.72
2022-11-26T06:18:02.288Z,5.60
2022-11-26T06:20:30.611Z,5.72
2022-11-26T06:22:58.912Z,6.28
2022-11-26T06:25:27.233Z,6.53
2022-11-26T06:27:55.611Z,6.82
2022-11-26T06:30:25.570Z,8.15
2022-11-26T06:32:53.905Z,7.00
2022-11-26T06:35:23.157Z,7.03
2022-11-26T06:37:51.519Z,6.85
2022-11-26T06:40:20.709Z,6.82
2022-11-26T06:42:49.933Z,6.63
2022-11-26T06:45:18.623Z,7.63
2022-11-26T06:47:48.609Z,7.05
2022-11-26T06:50:17.405Z,6.78
2022-11-26T06:52:58.103Z,6.57
2022-11-26T06:55:26.434Z,6.65
2022-11-26T06:57:54.710Z,7.28
2022-11-26T07:00:23.262Z,6.28
2022-11-26T07:02:52.930Z,5.97
2022-11-26T07:05:21.330Z,6.40
2022-11-26T07:07:49.684Z,6.93
2022-11-26T07:10:18.181Z,6.63
2022-11-26T07:12:46.474Z,6.32
2022-11-26T07:15:14.765Z,6.65
2022-11-26T07:17:43.053Z,6.80
2022-11-26T07:20:13.472Z,6.75
2022-11-26T07:22:42.086Z,6.20
2022-11-26T07:25:12.736Z,6.18
2022-11-26T07:27:41.709Z,6.47
2022-11-26T07:30:10.831Z,6.32
2022-11-26T07:32:39.232Z,6.03
2022-11-26T07:35:08.083Z,5.93
2022-11-26T07:37:37.718Z,5.85
2022-11-26T07:40:06.605Z,6.15
2022-11-26T07:42:35.257Z,6.18
2022-11-26T07:45:04.520Z,6.07
2022-11-26T07:47:33.191Z,6.72
2022-11-26T07:50:01.676Z,5.80
2022-11-26T07:52:29.967Z,6.03
2022-11-26T07:54:59.598Z,6.18
2022-11-26T07:57:28.903Z,6.88
2022-11-26T07:59:57.228Z,6.18
2022-11-26T08:02:25.578Z,6.10
2022-11-26T08:04:53.894Z,6.15
2022-11-26T08:07:28.862Z,6.88
2022-11-26T08:10:19.692Z,5.95
2022-11-26T08:12:50.352Z,7.72
2022-11-26T08:15:19.957Z,6.22
2022-11-26T08:17:51.262Z,5.25
2022-11-26T08:20:25.907Z,6.32
2022-11-26T08:22:57.180Z,5.57
2022-11-26T08:25:25.517Z,6.32
2022-11-26T08:27:55.208Z,6.43
2022-11-26T08:30:23.635Z,6.30
2022-11-26T08:32:52.125Z,6.60
2022-11-26T08:35:20.450Z,6.05
2022-11-26T08:37:48.781Z,6.25
2022-11-26T08:40:17.238Z,6.22
2022-11-26T08:42:45.591Z,5.53
2022-11-26T08:45:15.717Z,6.82
2022-11-26T08:47:44.057Z,6.82
2022-11-26T08:50:12.815Z,6.03
2022-11-26T08:52:41.193Z,7.15
2022-11-26T08:55:09.887Z,6.10
2022-11-26T08:57:38.230Z,6.50
2022-11-26T09:00:07.176Z,6.18
2022-11-26T09:02:40.159Z,6.03
2022-11-26T09:05:12.045Z,6.28
2022-11-26T09:07:44.062Z,5.40
2022-11-26T09:10:15.010Z,5.93
2022-11-26T09:12:43.362Z,5.38
2022-11-26T09:15:12.081Z,5.97
2022-11-26T09:17:41.788Z,6.50
2022-11-26T09:20:12.717Z,5.60
2022-11-26T09:22:41.208Z,6.35
2022-11-26T09:25:10.111Z,4.70
2022-11-26T09:27:38.730Z,5.43
2022-11-26T09:30:07.954Z,5.32
2022-11-26T09:32:37.304Z,5.30
2022-11-26T09:35:07.655Z,4.82
2022-11-26T09:37:36.008Z,5.57
2022-11-26T09:40:04.369Z,6.07
2022-11-26T09:42:41.197Z,5.85
2022-11-26T09:45:11.922Z,6.63
2022-11-26T09:47:41.748Z,6.82
2022-11-26T09:50:20.497Z,6.57
2022-11-26T09:52:52.267Z,6.68
2022-11-26T09:55:21.870Z,6.35
2022-11-26T09:57:53.141Z,6.28
2022-11-26T10:00:24.646Z,5.53
2022-11-26T10:02:55.290Z,5.70
2022-11-26T10:05:38.594Z,6.45
2022-11-26T10:08:15.287Z,5.88
2022-11-26T10:10:47.073Z,6.30
2022-11-26T10:13:20.998Z,6.70
2022-11-26T10:15:57.158Z,5.20
2022-11-26T10:18:33.766Z,6.32
2022-11-26T10:21:11.736Z,5.93
2022-11-26T10:23:45.346Z,5.63
2022-11-26T10:26:15.804Z,6.00
2022-11-26T10:28:45.747Z,7.93
2022-11-26T10:31:17.493Z,5.95
2022-11-26T10:33:50.120Z,6.00
2022-11-26T10:36:22.402Z,6.68
2022-11-26T10:38:50.865Z,6.00
2022-11-26T10:41:20.589Z,5.63
2022-11-26T10:43:49.079Z,5.28
2022-11-26T10:46:31.938Z,5.80
2022-11-26T10:49:15.318Z,5.38
2022-11-26T10:51:47.581Z,4.95
2022-11-26T10:54:26.221Z,5.28
2022-11-26T10:56:55.328Z,6.28
2022-11-26T10:59:26.026Z,5.68
2022-11-26T11:01:57.685Z,5.72
2022-11-26T11:04:31.834Z,5.30
2022-11-26T11:07:01.978Z,5.53
2022-11-26T11:09:32.880Z,5.10
2022-11-26T11:12:17.941Z,5.57
2022-11-26T11:14:47.350Z,5.78
2022-11-26T11:17:26.795Z,5.47
2022-11-26T11:19:55.222Z,5.10
2022-11-26T11:22:25.097Z,5.80
2022-11-26T11:25:01.586Z,5.75
2022-11-26T11:27:35.160Z,5.40
2022-11-26T11:30:03.588Z,6.32
2022-11-26T11:32:35.379Z,5.90
2022-11-26T11:35:24.561Z,6.50
2022-11-26T11:37:54.777Z,5.97
2022-11-26T11:40:27.473Z,7.20
2022-11-26T11:42:57.818Z,6.60
2022-11-26T11:45:36.205Z,5.35
2022-11-26T11:48:10.357Z,22.40
2022-11-26T11:50:41.789Z,6.65
2022-11-26T11:53:19.423Z,5.90
2022-11-26T11:55:52.013Z,5.30
2022-11-26T11:58:28.333Z,5.72
2022-11-26T12:00:57.764Z,5.20
2022-11-26T12:03:34.684Z,4.97
2022-11-26T12:06:11.709Z,5.18
2022-11-26T12:08:47.750Z,4.75
2022-11-26T12:11:25.608Z,4.45
2022-11-26T12:13:56.433Z,4.22
2022-11-26T12:16:26.640Z,4.15
2022-11-26T12:18:57.816Z,5.13
2022-11-26T12:21:32.174Z,4.80
2022-11-26T12:24:06.555Z,5.32
2022-11-26T12:26:36.952Z,5.10
2022-11-26T12:29:08.346Z,4.50
2022-11-26T12:31:38.492Z,4.45
2022-11-26T12:34:11.249Z,4.03
2022-11-26T12:36:44.154Z,4.78
2022-11-26T12:39:18.849Z,5.03
2022-11-26T12:41:50.630Z,4.18
2022-11-26T12:44:21.421Z,3.85
2022-11-26T12:46:54.075Z,4.22
2022-11-26T12:49:26.586Z,6.70
2022-11-26T12:52:01.246Z,5.47
2022-11-26T12:54:33.927Z,4.63
2022-11-26T12:57:05.462Z,3.83
2022-11-26T12:59:36.870Z,4.20
2022-11-26T13:02:17.415Z,4.15
2022-11-26T13:04:45.805Z,4.20
2022-11-26T13:07:18.197Z,3.63
2022-11-26T13:09:54.929Z,4.88
2022-11-26T13:12:27.175Z,3.65
2022-11-26T13:14:57.558Z,4.22
2022-11-26T13:17:30.872Z,4.68
2022-11-26T13:20:03.557Z,6.18
2022-11-26T13:22:42.186Z,6.93
2022-11-26T13:25:23.390Z,6.40
2022-11-26T13:27:56.030Z,6.45
2022-11-26T13:30:27.815Z,5.88
2022-11-26T13:33:10.024Z,5.57
2022-11-26T13:35:48.564Z,5.63
2022-11-26T13:38:21.621Z,5.00
2022-11-26T13:41:10.230Z,7.60
2022-11-26T13:43:53.485Z,6.18
2022-11-26T13:46:23.580Z,5.53
2022-11-26T13:48:56.042Z,5.07
2022-11-26T13:51:26.925Z,5.68
2022-11-26T13:53:58.607Z,5.07
2022-11-26T13:56:32.033Z,4.80
2022-11-26T13:59:02.608Z,5.45
2022-11-26T14:01:35.370Z,6.65
2022-11-26T14:04:04.400Z,5.75
2022-11-26T14:06:32.774Z,4.65
2022-11-26T14:09:01.100Z,5.97
2022-11-26T14:11:50.110Z,4.75
2022-11-26T14:14:36.182Z,5.18
2022-11-26T14:17:18.389Z,4.32
2022-11-26T14:20:06.130Z,4.10
2022-11-26T14:22:35.047Z,4.10
2022-11-26T14:25:04.608Z,4.57
2022-11-26T14:27:34.105Z,3.60
2022-11-26T14:30:23.737Z,4.15
2022-11-26T14:33:01.806Z,4.57
2022-11-26T14:35:34.373Z,4.78
2022-11-26T14:38:03.790Z,4.50
2022-11-26T14:40:33.761Z,4.90
2022-11-26T14:43:09.318Z,4.93
2022-11-26T14:45:39.242Z,5.07
2022-11-26T14:48:07.616Z,5.50
2022-11-26T14:50:37.776Z,5.00
2022-11-26T14:53:07.202Z,5.13
2022-11-26T14:55:36.141Z,5.20
2022-11-26T14:58:09.622Z,5.38
2022-11-26T15:00:39.688Z,4.97
2022-11-26T15:03:20.406Z,5.70
2022-11-26T15:05:48.783Z,6.18
2022-11-26T15:08:19.174Z,5.45
2022-11-26T15:10:51.094Z,5.07
2022-11-26T15:13:23.794Z,5.15
2022-11-26T15:15:54.101Z,5.03
2022-11-26T15:18:24.360Z,5.13
2022-11-26T15:20:53.344Z,5.35
2022-11-26T15:23:26.865Z,5.43
2022-11-26T15:25:56.919Z,4.88
2022-11-26T15:28:25.443Z,4.63
2022-11-26T15:30:59.638Z,5.15
2022-11-26T15:33:28.787Z,5.50
2022-11-26T15:35:57.788Z,6.13
2022-11-26T15:38:27.402Z,6.07
2022-11-26T15:40:57.175Z,7.03
2022-11-26T15:43:28.843Z,5.80
2022-11-26T15:46:00.408Z,9.25
2022-11-26T15:48:51.108Z,7.22
2022-11-26T15:51:23.297Z,6.78
2022-11-26T15:53:51.944Z,5.80
2022-11-26T15:56:21.195Z,5.40
2022-11-26T15:58:50.642Z,5.93
2022-11-26T16:01:22.612Z,5.57
2022-11-26T16:03:51.913Z,5.70
2022-11-26T16:06:28.779Z,5.30
2022-11-26T16:08:59.429Z,5.05
2022-11-26T16:11:27.999Z,5.53
2022-11-26T16:13:56.334Z,5.40
2022-11-26T16:16:27.326Z,5.40
2022-11-26T16:18:59.221Z,5.30
2022-11-26T16:21:28.571Z,5.00
2022-11-26T16:23:59.649Z,5.57
2022-11-26T16:26:28.380Z,5.35
2022-11-26T16:28:57.085Z,5.28
2022-11-26T16:31:26.856Z,5.93
2022-11-26T16:33:55.249Z,5.47
2022-11-26T16:36:24.840Z,7.10
2022-11-26T16:38:53.461Z,6.45
2022-11-26T16:41:23.404Z,6.20
2022-11-26T16:43:51.922Z,6.78
2022-11-26T16:46:23.506Z,7.07
2022-11-26T16:48:53.458Z,7.07
2022-11-26T16:51:22.226Z,6.05
2022-11-26T16:53:51.578Z,5.72
2022-11-26T16:56:21.814Z,6.18
2022-11-26T16:58:50.941Z,5.75
2022-11-26T17:01:19.275Z,5.35
2022-11-26T17:03:47.665Z,6.22
2022-11-26T17:06:19.448Z,5.25
2022-11-26T17:08:49.660Z,5.22
2022-11-26T17:11:19.001Z,6.20
2022-11-26T17:13:47.310Z,5.65
2022-11-26T17:16:16.895Z,6.57
2022-11-26T17:18:45.478Z,6.18
2022-11-26T17:21:13.795Z,5.57
2022-11-26T17:23:43.859Z,4.90
2022-11-26T17:26:18.471Z,4.97
2022-11-26T17:28:46.781Z,4.95
2022-11-26T17:31:15.241Z,5.00
2022-11-26T17:33:43.780Z,4.13
2022-11-26T17:36:16.019Z,4.43
2022-11-26T17:38:45.853Z,3.85
2022-11-26T17:41:14.624Z,4.60
2022-11-26T17:43:43.143Z,4.93
2022-11-26T17:46:15.234Z,5.20
2022-11-26T17:48:43.861Z,4.65
2022-11-26T17:51:13.315Z,5.65
2022-11-26T17:53:41.670Z,5.97
2022-11-26T17:56:16.627Z,5.90
2022-11-26T17:58:44.991Z,6.85
2022-11-26T18:01:14.459Z,7.30
2022-11-26T18:03:43.115Z,7.28
2022-11-26T18:06:15.661Z,8.45
2022-11-26T18:08:44.406Z,13.05
2022-11-26T18:11:14.797Z,13.32
2022-11-26T18:13:43.381Z,16.13
2022-11-26T18:16:11.904Z,13.38
2022-11-26T18:18:40.487Z,11.85
2022-11-26T18:21:08.852Z,9.32
2022-11-26T18:23:37.194Z,7.57
2022-11-26T18:26:05.519Z,6.70
2022-11-26T18:28:35.191Z,6.43
2022-11-26T18:31:03.848Z,7.07
2022-11-26T18:33:32.220Z,7.18
2022-11-26T18:36:00.589Z,11.27
2022-11-26T18:38:31.264Z,14.30
2022-11-26T18:41:00.109Z,9.48
2022-11-26T18:43:28.410Z,15.27
2022-11-26T18:45:58.253Z,18.45
2022-11-26T18:48:26.639Z,11.88
2022-11-26T18:50:58.633Z,10.77
2022-11-26T18:53:26.939Z,7.45
2022-11-26T18:55:55.616Z,11.32
2022-11-26T18:58:24.461Z,10.55
2022-11-26T19:00:54.224Z,8.32
2022-11-26T19:03:23.923Z,7.20
2022-11-26T19:05:53.713Z,8.30
2022-11-26T19:08:22.913Z,9.10
2022-11-26T19:10:51.627Z,7.80
2022-11-26T19:13:19.994Z,7.13
2022-11-26T19:15:48.312Z,7.43
2022-11-26T19:18:17.018Z,11.52
2022-11-26T19:20:50.304Z,10.32
2022-11-26T19:23:24.131Z,9.23
2022-11-26T19:25:52.513Z,17.70
2022-11-26T19:28:20.846Z,27.15
2022-11-26T19:30:58.436Z,31.27
2022-11-26T19:33:26.937Z,17.70
2022-11-26T19:35:56.928Z,15.00
2022-11-26T19:38:25.769Z,10.88
2022-11-26T19:40:57.092Z,11.77
2022-11-26T19:43:26.462Z,14.98
2022-11-26T19:46:02.442Z,17.50
2022-11-26T19:48:30.863Z,18.63
2022-11-26T19:51:01.136Z,23.08
2022-11-26T19:53:29.599Z,19.92
2022-11-26T19:55:58.825Z,11.50
2022-11-26T19:58:27.272Z,8.77
2022-11-26T20:00:55.958Z,7.47
2022-11-26T20:03:25.086Z,7.40
2022-11-26T20:05:53.607Z,7.43
2022-11-26T20:08:23.332Z,9.10
2022-11-26T20:10:51.679Z,9.07
2022-11-26T20:13:20.038Z,11.60
2022-11-26T20:15:48.886Z,17.20
2022-11-26T20:18:17.264Z,15.68
2022-11-26T20:20:45.582Z,14.23
2022-11-26T20:23:14.357Z,11.68
2022-11-26T20:25:44.113Z,8.90
2022-11-26T20:28:12.525Z,8.63
2022-11-26T20:30:40.942Z,8.18
2022-11-26T20:33:09.915Z,10.45
2022-11-26T20:35:41.093Z,10.13
2022-11-26T20:38:09.487Z,10.63
2022-11-26T20:40:40.097Z,9.93
2022-11-26T20:43:09.826Z,9.18
2022-11-26T20:45:38.313Z,7.88
2022-11-26T20:48:07.033Z,7.75
2022-11-26T20:50:35.374Z,7.32
2022-11-26T20:53:03.887Z,6.43
2022-11-26T20:55:32.195Z,6.40
2022-11-26T20:58:00.514Z,7.22
2022-11-26T21:00:30.243Z,6.35
2022-11-26T21:03:00.695Z,6.22
2022-11-26T21:05:29.115Z,6.35
2022-11-26T21:07:57.462Z,6.75
2022-11-26T21:10:28.646Z,7.10
2022-11-26T21:12:57.241Z,6.43
2022-11-26T21:15:25.566Z,6.57
2022-11-26T21:17:55.746Z,6.85
2022-11-26T21:20:24.171Z,6.05
2022-11-26T21:22:52.453Z,7.10
2022-11-26T21:25:20.829Z,6.43
2022-11-26T21:27:54.338Z,6.30
2022-11-26T21:30:24.169Z,5.45
2022-11-26T21:32:52.578Z,5.90
2022-11-26T21:35:22.276Z,5.45
2022-11-26T21:37:50.876Z,5.53
2022-11-26T21:40:19.428Z,5.00
2022-11-26T21:42:48.125Z,4.97
2022-11-26T21:45:16.436Z,5.18
2022-11-26T21:47:45.048Z,5.10
2022-11-26T21:50:13.387Z,5.60
2022-11-26T21:52:43.043Z,5.55
2022-11-26T21:55:11.489Z,5.60
2022-11-26T21:57:40.017Z,4.97
2022-11-26T22:00:08.930Z,5.68
2022-11-26T22:02:37.306Z,5.30
2022-11-26T22:05:05.897Z,5.70
2022-11-26T22:07:34.676Z,5.70
2022-11-26T22:10:04.664Z,5.20
2022-11-26T22:12:33.039Z,5.28
2022-11-26T22:15:01.338Z,5.00
2022-11-26T22:17:29.876Z,5.50
2022-11-26T22:19:58.228Z,6.43
2022-11-26T22:22:26.594Z,6.35
2022-11-26T22:24:54.873Z,6.43
2022-11-26T22:27:24.517Z,6.88
2022-11-26T22:29:52.908Z,7.78
2022-11-26T22:32:21.191Z,6.72
2022-11-26T22:34:49.556Z,6.57
2022-11-26T22:37:17.861Z,6.78
2022-11-26T22:39:51.079Z,5.93
2022-11-26T22:42:21.965Z,6.15
2022-11-26T22:44:51.875Z,5.80
2022-11-26T22:47:20.182Z,5.97
2022-11-26T22:49:49.363Z,5.90
2022-11-26T22:52:17.843Z,5.43
2022-11-26T22:54:46.207Z,5.60
2022-11-26T22:57:14.519Z,6.40
2022-11-26T22:59:44.114Z,5.68
2022-11-26T23:02:13.777Z,5.97
2022-11-26T23:04:42.153Z,6.20
2022-11-26T23:07:10.515Z,5.95
2022-11-26T23:09:43.736Z,6.20
2022-11-26T23:12:14.846Z,5.47
2022-11-26T23:14:43.144Z,6.30
2022-11-26T23:17:11.455Z,5.97
2022-11-26T23:19:41.448Z,6.95
2022-11-26T23:22:10.058Z,6.72
2022-11-26T23:24:38.388Z,7.10
2022-11-26T23:27:06.686Z,6.70
2022-11-26T23:29:35.548Z,7.38
2022-11-26T23:32:03.883Z,6.72
2022-11-26T23:34:32.214Z,6.75
2022-11-26T23:37:01.868Z,6.63
2022-11-26T23:39:30.299Z,6.40
2022-11-26T23:41:58.633Z,6.55
2022-11-26T23:44:26.948Z,5.95
2022-11-26T23:46:55.286Z,6.00
2022-11-26T23:49:23.806Z,6.55
2022-11-26T23:51:52.087Z,6.13
2022-11-26T23:54:21.807Z,6.32
2022-11-26T23:56:50.132Z,5.90
2022-11-26T23:59:18.645Z,6.00
